Time,TemperatureF,DewpointF,PressureIn,WindDirection,WindDirectionDegrees,WindSpeedMPH,WindSpeedGustMPH,Humidity,HourlyPrecipIn,Conditions,Clouds,dailyrainin,SolarRadiationWatts/m^2,SoftwareType,DateUTC
2017-02-27 00:04:00,26.2,24.7,30.07,NW,306,0.0,0.0,94,0.00,RA,,0.00,0.0,WeatherDisplay:10.37,2017-02-27 06:04:00,
2017-02-27 00:09:00,26.2,24.7,30.07,NW,306,0.0,0.0,94,0.00,RA,,0.00,0.0,WeatherDisplay:10.37,2017-02-27 06:09:00,
2017-02-27 00:14:00,26.2,24.7,30.07,NW,306,0.0,0.0,94,0.00,CLR,,0.00,0.0,WeatherDisplay:10.37,2017-02-27 06:14:00,
2017-02-27 00:19:00,26.1,24.6,30.07,NW,306,0.0,0.0,94,0.00,CLR,,0.00,0.0,WeatherDisplay:10.37,2017-02-27 06:19:00,
2017-02-27 00:24:00,26.1,24.6,30.07,NW,307,0.0,0.0,94,0.00,CLR,,0.00,0.0,WeatherDisplay:10.37,2017-02-27 06:24:00,
2017-02-27 00:29:00,25.9,24.4,30.07,NW,306,0.0,0.0,94,0.00,CLR,,0.00,0.0,WeatherDisplay:10.37,2017-02-27 06:29:00,
2017-02-27 00:34:00,25.7,24.0,30.07,NW,306,0.0,0.0,93,0.00,CLR,,0.00,0.0,WeatherDisplay:10.37,2017-02-27 06:34:00,
2017-02-27 00:36:00,25.7,24.2,30.07,NW,306,0.0,0.0,94,0.00,CLR,,0.00,0.0,WeatherDisplay:10.37,2017-02-27 06:36:00,
2017-02-27 00:41:00,25.5,24.0,30.07,NW,306,0.0,0.0,94,0.00,CLR,,0.00,0.0,WeatherDisplay:10.37,2017-02-27 06:41:00,
2017-02-27 00:46:00,25.3,23.6,30.07,NW,306,0.0,0.0,93,0.00,CLR,,0.00,0.0,WeatherDisplay:10.37,2017-02-27 06:46:00,
2017-02-27 00:51:00,25.1,25.1,30.07,NW,307,0.0,0.0,100,0.00,CLR,,0.00,0.0,WeatherDisplay:10.37,2017-02-27 06:51:00,
2017-02-27 00:56:00,24.9,23.2,30.07,NW,306,0.0,0.0,93,0.00,CLR,,0.00,0.0,WeatherDisplay:10.37,2017-02-27 06:56:00,
2017-02-27 01:01:00,24.9,23.2,30.07,NW,306,0.0,0.0,93,0.00,CLR,,0.00,0.0,WeatherDisplay:10.37,2017-02-27 07:01:00,
2017-02-27 01:06:00,24.9,23.4,30.07,NW,306,0.0,0.0,94,0.00,CLR,,0.00,0.0,WeatherDisplay:10.37,2017-02-27 07:06:00,
2017-02-27 01:11:00,24.8,23.3,30.07,NW,307,0.0,0.0,94,0.00,CLR,,0.00,0.0,WeatherDisplay:10.37,2017-02-27 07:11:00,
2017-02-27 01:16:00,24.8,23.3,30.08,NW,307,0.0,0.0,94,0.00,CLR,,0.00,0.0,WeatherDisplay:10.37,2017-02-27 07:16:00,
2017-02-27 01:21:00,24.8,23.3,30.07,NW,306,0.0,0.0,94,0.00,CLR,,0.00,0.0,WeatherDisplay:10.37,2017-02-27 07:21:00,
2017-02-27 01:26:00,24.7,23.2,30.07,NW,306,0.0,0.0,94,0.00,CLR,,0.00,0.0,WeatherDisplay:10.37,2017-02-27 07:26:00,
2017-02-27 01:31:00,24.7,23.2,30.07,NW,306,0.0,0.0,94,0.00,CLR,,0.00,0.0,WeatherDisplay:10.37,2017-02-27 07:31:00,
2017-02-27 01:36:00,24.7,23.2,30.07,NW,307,0.0,0.0,94,0.00,CLR,,0.00,0.0,WeatherDisplay:10.37,2017-02-27 07:36:00,
2017-02-27 01:41:00,24.7,23.2,30.07,NW,306,0.0,0.0,94,0.00,CLR,,0.00,0.0,WeatherDisplay:10.37,2017-02-27 07:41:00,
2017-02-27 01:46:00,24.7,23.2,30.07,NW,307,0.0,0.0,94,0.00,CLR,,0.00,0.0,WeatherDisplay:10.37,2017-02-27 07:46:00,
2017-02-27 01:51:00,24.7,23.2,30.07,NW,307,0.0,0.0,94,0.00,CLR,,0.00,0.0,WeatherDisplay:10.37,2017-02-27 07:51:00,
2017-02-27 02:01:00,24.6,23.1,30.07,NW,306,0.0,0.0,94,0.00,CLR,,0.00,0.0,WeatherDisplay:10.37,2017-02-27 08:01:00,
2017-02-27 02:06:00,24.5,23.0,30.07,NW,306,0.0,0.0,94,0.00,CLR,,0.00,0.0,WeatherDisplay:10.37,2017-02-27 08:06:00,
2017-02-27 02:11:00,24.3,22.8,30.07,NW,306,0.0,0.0,94,0.00,CLR,,0.00,0.0,WeatherDisplay:10.37,2017-02-27 08:11:00,
2017-02-27 02:16:00,24.2,22.7,30.07,NW,306,0.0,0.0,94,0.00,CLR,,0.00,0.0,WeatherDisplay:10.37,2017-02-27 08:16:00,
2017-02-27 02:21:00,24.0,22.5,30.07,NW,306,0.0,0.0,94,0.00,CLR,,0.00,0.0,WeatherDisplay:10.37,2017-02-27 08:21:00,
2017-02-27 02:26:00,23.9,22.4,30.07,NW,307,0.0,0.0,94,0.00,CLR,,0.00,0.0,WeatherDisplay:10.37,2017-02-27 08:26:00,
2017-02-27 02:31:00,23.8,22.3,30.07,NW,306,0.0,0.0,94,0.00,CLR,,0.00,0.0,WeatherDisplay:10.37,2017-02-27 08:31:00,
2017-02-27 02:36:00,23.8,22.3,30.07,NW,306,0.0,0.0,94,0.00,CLR,,0.00,0.0,WeatherDisplay:10.37,2017-02-27 08:36:00,
2017-02-27 02:41:00,23.7,22.2,30.06,NW,307,0.0,0.0,94,0.00,CLR,,0.00,0.0,WeatherDisplay:10.37,2017-02-27 08:41:00,
2017-02-27 02:46:00,23.7,22.2,30.06,NW,306,0.0,0.0,94,0.00,CLR,,0.00,0.0,WeatherDisplay:10.37,2017-02-27 08:46:00,
2017-02-27 02:51:00,23.7,22.2,30.06,NW,306,0.0,0.0,94,0.00,CLR,,0.00,0.0,WeatherDisplay:10.37,2017-02-27 08:51:00,
2017-02-27 02:56:00,23.6,22.1,30.06,NW,306,0.0,0.0,94,0.00,CLR,,0.00,0.0,WeatherDisplay:10.37,2017-02-27 08:56:00,
2017-02-27 03:01:00,23.8,22.3,30.06,NW,306,0.0,0.0,94,0.00,CLR,,0.00,0.0,WeatherDisplay:10.37,2017-02-27 09:01:00,
2017-02-27 03:06:00,23.9,22.7,30.06,NW,306,0.0,0.0,95,0.00,CLR,,0.00,0.0,WeatherDisplay:10.37,2017-02-27 09:06:00,
2017-02-27 03:11:00,24.1,22.9,30.06,NW,307,0.0,0.0,95,0.00,CLR,,0.00,0.0,WeatherDisplay:10.37,2017-02-27 09:11:00,
2017-02-27 03:16:00,24.2,23.0,30.06,NW,306,0.0,0.0,95,0.00,CLR,,0.00,0.0,WeatherDisplay:10.37,2017-02-27 09:16:00,
2017-02-27 03:21:00,24.0,22.8,30.06,NW,306,0.0,0.0,95,0.00,CLR,,0.00,0.0,WeatherDisplay:10.37,2017-02-27 09:21:00,
2017-02-27 03:26:00,24.0,22.5,30.06,NW,306,0.0,0.0,94,0.00,CLR,,0.00,0.0,WeatherDisplay:10.37,2017-02-27 09:26:00,
2017-02-27 03:31:00,23.8,22.3,30.06,NW,306,0.0,0.0,94,0.00,CLR,,0.00,0.0,WeatherDisplay:10.37,2017-02-27 09:31:00,
2017-02-27 03:36:00,23.6,22.1,30.05,NW,306,0.0,0.0,94,0.00,CLR,,0.00,0.0,WeatherDisplay:10.37,2017-02-27 09:36:00,
2017-02-27 03:41:00,23.5,22.0,30.05,NW,307,0.0,0.0,94,0.00,CLR,,0.00,0.0,WeatherDisplay:10.37,2017-02-27 09:41:00,
2017-02-27 03:46:00,23.3,21.8,30.06,NW,306,0.0,0.0,94,0.00,CLR,,0.00,0.0,WeatherDisplay:10.37,2017-02-27 09:46:00,
2017-02-27 03:51:00,23.3,21.8,30.05,NW,306,0.0,0.0,94,0.00,CLR,,0.00,0.0,WeatherDisplay:10.37,2017-02-27 09:51:00,
2017-02-27 03:56:00,23.3,21.8,30.05,NW,306,0.0,0.0,94,0.00,CLR,,0.00,0.0,WeatherDisplay:10.37,2017-02-27 09:56:00,
2017-02-27 04:01:00,23.3,21.8,30.05,NW,306,0.0,0.0,94,0.00,CLR,,0.00,0.0,WeatherDisplay:10.37,2017-02-27 10:01:00,
2017-02-27 04:06:00,23.5,22.3,30.06,NW,306,0.0,0.0,95,0.00,CLR,,0.00,0.0,WeatherDisplay:10.37,2017-02-27 10:06:00,
2017-02-27 04:11:00,23.5,22.3,30.06,NW,306,0.0,0.0,95,0.00,CLR,,0.00,0.0,WeatherDisplay:10.37,2017-02-27 10:11:00,
2017-02-27 04:16:00,23.4,22.2,30.06,NW,306,0.0,0.0,95,0.00,CLR,,0.00,0.0,WeatherDisplay:10.37,2017-02-27 10:16:00,
2017-02-27 04:21:00,23.3,21.8,30.06,NW,307,0.0,0.0,94,0.00,CLR,,0.00,0.0,WeatherDisplay:10.37,2017-02-27 10:21:00,
2017-02-27 04:26:00,23.3,22.1,30.06,NW,306,0.0,0.0,95,0.00,CLR,,0.00,0.0,WeatherDisplay:10.37,2017-02-27 10:26:00,
2017-02-27 04:31:00,23.4,22.2,30.06,NW,306,0.0,0.0,95,0.00,CLR,,0.00,0.0,WeatherDisplay:10.37,2017-02-27 10:31:00,
2017-02-27 04:36:00,23.4,22.2,30.06,NW,306,0.0,0.0,95,0.00,CLR,,0.00,0.0,WeatherDisplay:10.37,2017-02-27 10:36:00,
2017-02-27 04:41:00,23.3,22.1,30.06,NW,307,0.0,0.0,95,0.00,CLR,,0.00,0.0,WeatherDisplay:10.37,2017-02-27 10:41:00,
2017-02-27 04:46:00,23.1,21.6,30.06,NW,306,0.0,0.0,94,0.00,CLR,,0.00,0.0,WeatherDisplay:10.37,2017-02-27 10:46:00,
2017-02-27 04:51:00,23.1,21.9,30.06,NW,306,0.0,0.0,95,0.00,CLR,,0.00,0.0,WeatherDisplay:10.37,2017-02-27 10:51:00,
2017-02-27 04:56:00,23.3,22.1,30.05,NW,306,0.0,0.0,95,0.00,CLR,,0.00,0.0,WeatherDisplay:10.37,2017-02-27 10:56:00,
2017-02-27 05:01:00,23.6,22.4,30.05,NW,306,0.0,0.0,95,0.00,CLR,,0.00,0.0,WeatherDisplay:10.37,2017-02-27 11:01:00,
2017-02-27 05:06:00,23.7,22.5,30.06,NW,307,0.0,0.0,95,0.00,CLR,,0.00,0.0,WeatherDisplay:10.37,2017-02-27 11:06:00,
2017-02-27 05:11:00,23.6,22.4,30.06,NW,306,0.0,0.0,95,0.00,CLR,,0.00,0.0,WeatherDisplay:10.37,2017-02-27 11:11:00,
2017-02-27 05:16:00,23.6,22.4,30.06,NW,306,0.0,0.0,95,0.00,CLR,,0.00,0.0,WeatherDisplay:10.37,2017-02-27 11:16:00,
2017-02-27 05:21:00,23.6,22.4,30.06,NW,307,0.0,0.0,95,0.00,CLR,,0.00,0.0,WeatherDisplay:10.37,2017-02-27 11:21:00,
2017-02-27 05:25:00,23.5,22.3,30.06,NW,307,0.0,0.0,95,0.00,CLR,,0.00,0.0,WeatherDisplay:10.37,2017-02-27 11:25:00,
2017-02-27 05:30:00,23.5,22.3,30.06,NW,306,0.0,0.0,95,0.00,CLR,,0.00,0.0,WeatherDisplay:10.37,2017-02-27 11:30:00,
2017-02-27 05:35:00,23.5,22.3,30.06,NW,306,0.0,0.0,95,0.00,CLR,,0.00,0.0,WeatherDisplay:10.37,2017-02-27 11:35:00,
2017-02-27 05:40:00,23.4,22.2,30.06,NW,307,0.0,0.0,95,0.00,CLR,,0.00,0.0,WeatherDisplay:10.37,2017-02-27 11:40:00,
2017-02-27 05:45:00,23.4,21.9,30.06,NW,307,0.0,0.0,94,0.00,CLR,,0.00,0.0,WeatherDisplay:10.37,2017-02-27 11:45:00,
2017-02-27 05:50:00,23.4,21.9,30.06,NW,306,0.0,0.0,94,0.00,CLR,,0.00,0.0,WeatherDisplay:10.37,2017-02-27 11:50:00,
2017-02-27 05:55:00,23.6,22.4,30.06,NW,306,0.0,0.0,95,0.00,CLR,,0.00,0.0,WeatherDisplay:10.37,2017-02-27 11:55:00,
2017-02-27 06:00:00,23.7,22.5,30.06,NW,306,0.0,0.0,95,0.00,CLR,,0.00,0.0,WeatherDisplay:10.37,2017-02-27 12:00:00,
2017-02-27 06:05:00,23.9,22.4,30.06,NW,306,0.0,0.0,94,0.00,CLR,,0.00,0.0,WeatherDisplay:10.37,2017-02-27 12:05:00,
2017-02-27 06:10:00,23.8,22.3,30.06,NW,306,0.0,0.0,94,0.00,CLR,,0.00,0.0,WeatherDisplay:10.37,2017-02-27 12:10:00,
2017-02-27 06:15:00,23.7,22.2,30.06,NW,306,0.0,0.0,94,0.00,CLR,,0.00,0.0,WeatherDisplay:10.37,2017-02-27 12:15:00,
2017-02-27 06:20:00,23.5,22.0,30.06,NW,306,0.0,0.0,94,0.00,CLR,,0.00,0.0,WeatherDisplay:10.37,2017-02-27 12:20:00,
2017-02-27 06:25:00,23.3,21.8,30.06,NW,306,0.0,0.0,94,0.00,CLR,,0.00,0.0,WeatherDisplay:10.37,2017-02-27 12:25:00,
2017-02-27 06:26:00,23.3,21.8,30.06,NW,306,0.0,0.0,94,0.00,CLR,,0.00,0.0,WeatherDisplay:10.37,2017-02-27 12:26:00,
2017-02-27 06:31:00,23.2,21.5,30.07,NW,307,0.0,0.0,93,0.00,CLR,,0.00,0.0,WeatherDisplay:10.37,2017-02-27 12:31:00,
2017-02-27 06:36:00,23.1,21.4,30.06,NW,306,0.0,0.0,93,0.00,CLR,,0.00,0.0,WeatherDisplay:10.37,2017-02-27 12:36:00,
2017-02-27 06:41:00,23.1,21.6,30.06,NW,306,0.0,0.0,94,0.00,CLR,,0.00,0.0,WeatherDisplay:10.37,2017-02-27 12:41:00,
2017-02-27 06:46:00,23.3,21.8,30.06,NW,306,0.0,0.0,94,0.00,CLR,,0.00,0.0,WeatherDisplay:10.37,2017-02-27 12:46:00,
2017-02-27 06:51:00,23.4,21.9,30.06,NW,306,0.0,0.0,94,0.00,CLR,,0.00,0.0,WeatherDisplay:10.37,2017-02-27 12:51:00,
2017-02-27 06:56:00,23.8,22.3,30.06,NW,307,0.0,0.0,94,0.00,CLR,,0.00,5.0,WeatherDisplay:10.37,2017-02-27 12:56:00,
2017-02-27 07:01:00,24.0,22.5,30.06,NW,306,0.0,0.0,94,0.00,CLR,,0.00,7.0,WeatherDisplay:10.37,2017-02-27 13:01:00,
2017-02-27 07:06:00,24.0,22.3,30.06,NW,306,0.0,0.0,93,0.00,CLR,,0.00,9.0,WeatherDisplay:10.37,2017-02-27 13:06:00,
2017-02-27 07:11:00,24.0,22.3,30.06,NW,306,0.0,0.0,93,0.00,CLR,,0.00,11.0,WeatherDisplay:10.37,2017-02-27 13:11:00,
2017-02-27 07:16:00,23.9,21.9,30.06,NW,306,0.0,0.0,92,0.00,CLR,,0.00,14.0,WeatherDisplay:10.37,2017-02-27 13:16:00,
2017-02-27 07:20:00,23.9,21.9,30.06,NW,307,0.0,0.0,92,0.00,CLR,,0.00,18.0,WeatherDisplay:10.37,2017-02-27 13:20:00,
2017-02-27 07:25:00,24.0,22.0,30.06,NW,306,0.0,0.0,92,0.00,CLR,,0.00,19.0,WeatherDisplay:10.37,2017-02-27 13:25:00,
2017-02-27 07:26:00,24.1,22.4,30.06,NW,306,0.0,0.0,93,0.00,CLR,,0.00,19.0,WeatherDisplay:10.37,2017-02-27 13:26:00,
2017-02-27 07:31:00,24.3,22.6,30.07,NW,307,0.0,0.0,93,0.00,CLR,,0.00,21.0,WeatherDisplay:10.37,2017-02-27 13:31:00,
2017-02-27 07:36:00,24.6,22.9,30.07,NW,306,0.0,0.0,93,0.00,CLR,,0.00,25.0,WeatherDisplay:10.37,2017-02-27 13:36:00,
2017-02-27 07:41:00,25.1,23.4,30.07,NW,306,0.0,0.0,93,0.00,CLR,,0.00,35.0,WeatherDisplay:10.37,2017-02-27 13:41:00,
2017-02-27 07:46:00,25.4,23.7,30.07,NW,306,0.0,0.0,93,0.00,CLR,,0.00,28.0,WeatherDisplay:10.37,2017-02-27 13:46:00,
2017-02-27 07:51:00,25.9,23.9,30.07,NW,306,0.0,0.0,92,0.00,CLR,,0.00,49.0,WeatherDisplay:10.37,2017-02-27 13:51:00,
2017-02-27 07:56:00,26.4,24.4,30.07,NW,306,0.0,0.0,92,0.00,CLR,,0.00,33.0,WeatherDisplay:10.37,2017-02-27 13:56:00,
2017-02-27 08:01:00,27.0,24.7,30.07,NW,306,0.0,0.0,91,0.00,CLR,,0.00,63.0,WeatherDisplay:10.37,2017-02-27 14:01:00,
2017-02-27 08:06:00,27.4,25.1,30.07,NW,306,0.0,0.0,91,0.00,CLR,,0.00,60.0,WeatherDisplay:10.37,2017-02-27 14:06:00,
2017-02-27 08:11:00,27.9,25.3,30.07,NW,307,0.0,0.0,90,0.00,CLR,,0.00,51.0,WeatherDisplay:10.37,2017-02-27 14:11:00,
2017-02-27 08:16:00,28.2,25.4,30.07,NW,306,0.0,0.0,89,0.00,CLR,,0.00,104.0,WeatherDisplay:10.37,2017-02-27 14:16:00,
2017-02-27 08:21:00,28.7,25.9,30.07,NW,308,0.0,0.0,89,0.00,CLR,,0.00,72.0,WeatherDisplay:10.37,2017-02-27 14:21:00,
2017-02-27 08:26:00,29.1,26.3,30.07,NW,306,0.0,0.0,89,0.00,CLR,,0.00,56.0,WeatherDisplay:10.37,2017-02-27 14:26:00,
2017-02-27 08:31:00,29.5,26.7,30.07,WNW,287,0.0,0.0,89,0.00,SCT,,0.00,79.0,WeatherDisplay:10.37,2017-02-27 14:31:00,
2017-02-27 08:36:00,30.0,27.2,30.08,South,175,2.6,5.8,89,0.00,SCT,,0.00,97.0,WeatherDisplay:10.37,2017-02-27 14:36:00,
2017-02-27 08:41:00,30.5,27.4,30.08,South,171,0.0,0.0,88,0.00,SCT,,0.00,167.0,WeatherDisplay:10.37,2017-02-27 14:41:00,
2017-02-27 08:46:00,31.0,27.9,30.08,South,184,0.0,0.0,88,0.00,CLR,,0.00,178.0,WeatherDisplay:10.37,2017-02-27 14:46:00,
2017-02-27 08:51:00,31.4,28.3,30.08,South,182,0.0,0.0,88,0.00,CLR,,0.00,165.0,WeatherDisplay:10.37,2017-02-27 14:51:00,
2017-02-27 08:56:00,31.5,28.1,30.08,South,173,0.0,0.0,87,0.00,CLR,,0.00,169.0,WeatherDisplay:10.37,2017-02-27 14:56:00,
2017-02-27 09:01:00,31.8,28.4,30.08,South,173,0.0,0.0,87,0.00,CLR,,0.00,190.0,WeatherDisplay:10.37,2017-02-27 15:01:00,
2017-02-27 09:06:00,32.1,28.9,30.08,South,173,0.0,0.0,88,0.00,CLR,,0.00,144.0,WeatherDisplay:10.37,2017-02-27 15:06:00,
2017-02-27 09:11:00,32.5,29.3,30.08,South,170,0.0,0.0,88,0.00,CLR,,0.00,288.0,WeatherDisplay:10.37,2017-02-27 15:11:00,
2017-02-27 09:16:00,33.1,29.9,30.08,South,184,0.0,1.2,88,0.00,CLR,,0.00,350.0,WeatherDisplay:10.37,2017-02-27 15:16:00,
2017-02-27 09:21:00,33.7,30.5,30.08,SSE,156,0.0,0.0,88,0.00,CLR,,0.00,366.0,WeatherDisplay:10.37,2017-02-27 15:21:00,
2017-02-27 09:26:00,34.1,30.9,30.08,SSE,159,0.0,1.2,88,0.00,CLR,,0.00,290.0,WeatherDisplay:10.37,2017-02-27 15:26:00,
2017-02-27 09:31:00,34.6,31.1,30.08,SSE,159,0.0,0.0,87,0.00,CLR,,0.00,220.0,WeatherDisplay:10.37,2017-02-27 15:31:00,
2017-02-27 09:36:00,35.0,31.5,30.09,SSE,159,0.0,0.0,87,0.00,CLR,,0.00,313.0,WeatherDisplay:10.37,2017-02-27 15:36:00,
2017-02-27 09:41:00,35.6,32.1,30.08,SSE,159,0.0,0.0,87,0.00,CLR,,0.00,316.0,WeatherDisplay:10.37,2017-02-27 15:41:00,
2017-02-27 09:46:00,36.1,32.6,30.08,SSE,160,0.0,0.0,87,0.00,CLR,,0.00,207.0,WeatherDisplay:10.37,2017-02-27 15:46:00,
2017-02-27 09:51:00,36.4,32.9,30.08,South,180,0.1,1.0,87,0.00,CLR,,0.00,144.0,WeatherDisplay:10.37,2017-02-27 15:51:00,
2017-02-27 09:56:00,36.5,32.7,30.08,South,169,0.1,1.2,86,0.00,CLR,,0.00,323.0,WeatherDisplay:10.37,2017-02-27 15:56:00,
2017-02-27 10:01:00,36.9,33.1,30.08,SSE,166,0.0,0.0,86,0.00,CLR,,0.00,250.0,WeatherDisplay:10.37,2017-02-27 16:01:00,
2017-02-27 10:06:00,37.5,34.0,30.08,SSE,166,0.0,0.0,87,0.00,CLR,,0.00,320.0,WeatherDisplay:10.37,2017-02-27 16:06:00,
2017-02-27 10:11:00,38.1,34.3,30.08,SSE,165,0.0,1.2,86,0.01,RA,,0.01,265.0,WeatherDisplay:10.37,2017-02-27 16:11:00,
2017-02-27 10:16:00,38.3,34.2,30.08,South,183,0.0,0.0,85,0.01,RA,,0.01,420.0,WeatherDisplay:10.37,2017-02-27 16:16:00,
2017-02-27 10:21:00,38.6,34.2,30.07,SSE,154,0.0,0.0,84,0.01,CLR,,0.01,155.0,WeatherDisplay:10.37,2017-02-27 16:21:00,
2017-02-27 10:26:00,38.7,34.3,30.07,SSE,154,0.0,0.0,84,0.01,CLR,,0.01,100.0,WeatherDisplay:10.37,2017-02-27 16:26:00,
2017-02-27 10:31:00,38.9,34.5,30.07,ESE,115,0.5,2.3,84,0.01,CLR,,0.01,248.0,WeatherDisplay:10.37,2017-02-27 16:31:00,
2017-02-27 10:36:00,39.3,34.9,30.07,SSE,156,0.0,0.0,84,0.01,CLR,,0.01,128.0,WeatherDisplay:10.37,2017-02-27 16:36:00,
2017-02-27 10:41:00,39.8,35.1,30.07,SE,139,0.0,0.0,83,0.01,CLR,,0.01,127.0,WeatherDisplay:10.37,2017-02-27 16:41:00,
2017-02-27 10:46:00,40.4,35.3,30.07,South,175,0.0,1.2,82,0.01,CLR,,0.01,278.0,WeatherDisplay:10.37,2017-02-27 16:46:00,
2017-02-27 10:51:00,40.9,35.2,30.07,South,184,0.2,2.3,80,0.01,CLR,,0.01,246.0,WeatherDisplay:10.37,2017-02-27 16:51:00,
2017-02-27 10:56:00,41.3,35.3,30.07,SSE,162,0.7,4.6,79,0.01,CLR,,0.01,555.0,WeatherDisplay:10.37,2017-02-27 16:56:00,
2017-02-27 11:01:00,41.9,35.5,30.07,South,178,0.0,0.0,78,0.01,CLR,,0.01,515.0,WeatherDisplay:10.37,2017-02-27 17:01:00,
2017-02-27 11:06:00,42.6,35.9,30.07,South,181,0.0,0.0,77,0.01,CLR,,0.01,455.0,WeatherDisplay:10.37,2017-02-27 17:06:00,
2017-02-27 11:11:00,43.0,35.3,30.07,SSW,196,0.5,2.3,74,0.00,CLR,,0.01,251.0,WeatherDisplay:10.37,2017-02-27 17:11:00,
2017-02-27 11:16:00,43.1,36.0,30.07,South,172,0.1,1.0,76,0.00,CLR,,0.01,221.0,WeatherDisplay:10.37,2017-02-27 17:16:00,
2017-02-27 11:21:00,43.4,35.7,30.06,South,169,0.0,1.2,74,0.00,CLR,,0.01,207.0,WeatherDisplay:10.37,2017-02-27 17:21:00,
2017-02-27 11:26:00,43.5,35.4,30.06,SE,132,0.0,1.2,73,0.00,CLR,,0.01,355.0,WeatherDisplay:10.37,2017-02-27 17:26:00,
2017-02-27 11:31:00,43.7,35.6,30.06,South,188,0.7,3.5,73,0.00,CLR,,0.01,434.0,WeatherDisplay:10.37,2017-02-27 17:31:00,
2017-02-27 11:36:00,44.1,36.0,30.06,SSE,167,0.6,2.3,73,0.00,CLR,,0.01,301.0,WeatherDisplay:10.37,2017-02-27 17:36:00,
2017-02-27 11:41:00,44.5,36.4,30.06,SSW,206,0.7,2.0,73,0.00,CLR,,0.01,225.0,WeatherDisplay:10.37,2017-02-27 17:41:00,
2017-02-27 11:46:00,45.1,36.3,30.06,SSE,167,1.0,3.5,71,0.00,CLR,,0.01,281.0,WeatherDisplay:10.37,2017-02-27 17:46:00,
2017-02-27 11:51:00,45.8,35.5,30.05,SSE,153,2.7,5.8,67,0.00,CLR,,0.01,323.0,WeatherDisplay:10.37,2017-02-27 17:51:00,
2017-02-27 11:56:00,46.3,35.9,30.05,SSE,153,0.0,0.0,67,0.00,CLR,,0.01,432.0,WeatherDisplay:10.37,2017-02-27 17:56:00,
2017-02-27 12:01:00,46.9,35.7,30.05,SSW,196,0.0,0.0,65,0.00,CLR,,0.01,401.0,WeatherDisplay:10.37,2017-02-27 18:01:00,
2017-02-27 12:06:00,47.4,34.6,30.05,SSE,165,0.0,1.2,61,0.00,CLR,,0.01,399.0,WeatherDisplay:10.37,2017-02-27 18:06:00,
2017-02-27 12:11:00,47.8,35.4,30.05,South,173,0.3,2.0,62,0.00,CLR,,0.01,306.0,WeatherDisplay:10.37,2017-02-27 18:11:00,
2017-02-27 12:16:00,48.2,35.0,30.05,South,171,0.3,2.3,60,0.00,CLR,,0.01,341.0,WeatherDisplay:10.37,2017-02-27 18:16:00,
2017-02-27 12:21:00,48.6,34.5,30.04,SSE,160,1.5,6.0,58,0.00,CLR,,0.01,529.0,WeatherDisplay:10.37,2017-02-27 18:21:00,
2017-02-27 12:26:00,48.9,32.0,30.04,South,189,2.7,5.8,52,0.00,CLR,,0.01,647.0,WeatherDisplay:10.37,2017-02-27 18:26:00,
2017-02-27 12:31:00,49.0,33.1,30.04,SSE,162,2.5,4.6,54,0.00,CLR,,0.01,659.0,WeatherDisplay:10.37,2017-02-27 18:31:00,
2017-02-27 12:36:00,48.9,32.0,30.03,SSW,200,4.4,9.2,52,0.00,CLR,,0.01,670.0,WeatherDisplay:10.37,2017-02-27 18:36:00,
2017-02-27 12:41:00,48.6,32.7,30.03,SSW,202,0.5,2.3,54,0.00,CLR,,0.01,469.0,WeatherDisplay:10.37,2017-02-27 18:41:00,
2017-02-27 12:46:00,48.6,33.1,30.03,SSW,197,5.9,8.1,55,0.00,CLR,,0.01,510.0,WeatherDisplay:10.37,2017-02-27 18:46:00,
2017-02-27 12:51:00,48.6,34.0,30.02,SSW,199,5.1,6.9,57,0.00,CLR,,0.01,455.0,WeatherDisplay:10.37,2017-02-27 18:51:00,
2017-02-27 12:56:00,48.7,34.1,30.02,SSE,165,3.8,8.1,57,0.00,CLR,,0.01,406.0,WeatherDisplay:10.37,2017-02-27 18:56:00,
2017-02-27 13:01:00,48.9,34.3,30.01,SSE,163,3.5,10.4,57,0.00,CLR,,0.01,561.0,WeatherDisplay:10.37,2017-02-27 19:01:00,
2017-02-27 13:06:00,49.0,34.4,30.01,SSW,207,4.4,5.8,57,0.00,CLR,,0.01,457.0,WeatherDisplay:10.37,2017-02-27 19:06:00,
2017-02-27 13:11:00,49.1,34.9,30.01,South,178,0.1,1.2,58,0.00,CLR,,0.01,381.0,WeatherDisplay:10.37,2017-02-27 19:11:00,
2017-02-27 13:16:00,49.4,35.2,30.00,SSE,163,4.4,8.1,58,0.00,CLR,,0.01,425.0,WeatherDisplay:10.37,2017-02-27 19:16:00,
2017-02-27 13:21:00,49.6,35.0,30.00,SSW,198,2.8,6.9,57,0.00,CLR,,0.01,352.0,WeatherDisplay:10.37,2017-02-27 19:21:00,
2017-02-27 13:26:00,49.7,35.1,29.99,South,180,1.4,4.6,57,0.00,CLR,,0.01,454.0,WeatherDisplay:10.37,2017-02-27 19:26:00,
2017-02-27 13:31:00,50.1,34.5,29.99,SSW,201,4.6,8.1,55,0.00,CLR,,0.01,410.0,WeatherDisplay:10.37,2017-02-27 19:31:00,
2017-02-27 13:36:00,50.6,35.0,29.99,SSE,159,3.9,6.9,55,0.00,CLR,,0.01,422.0,WeatherDisplay:10.37,2017-02-27 19:36:00,
2017-02-27 13:41:00,51.1,35.0,29.99,South,171,4.3,6.0,54,0.00,CLR,,0.01,371.0,WeatherDisplay:10.37,2017-02-27 19:41:00,
2017-02-27 13:46:00,51.4,33.4,29.99,SSE,161,5.6,6.9,50,0.00,CLR,,0.01,359.0,WeatherDisplay:10.37,2017-02-27 19:46:00,
2017-02-27 13:51:00,51.4,33.4,29.99,SSW,192,4.7,8.1,50,0.00,CLR,,0.01,329.0,WeatherDisplay:10.37,2017-02-27 19:51:00,
2017-02-27 13:56:00,51.5,33.5,29.99,SSW,197,3.3,6.0,50,0.00,CLR,,0.01,320.0,WeatherDisplay:10.37,2017-02-27 19:56:00,
2017-02-27 14:01:00,51.7,32.6,29.98,South,180,5.6,8.1,48,0.00,BKN,,0.01,359.0,WeatherDisplay:10.37,2017-02-27 20:01:00,
2017-02-27 14:06:00,51.8,34.2,29.98,South,178,0.0,1.2,51,0.00,BKN,,0.01,366.0,WeatherDisplay:10.37,2017-02-27 20:06:00,
2017-02-27 14:11:00,52.2,34.6,29.98,South,180,1.8,4.6,51,0.00,BKN,,0.01,323.0,WeatherDisplay:10.37,2017-02-27 20:11:00,
2017-02-27 14:16:00,52.3,34.2,29.97,South,177,3.5,7.0,50,0.00,BKN,,0.01,294.0,WeatherDisplay:10.37,2017-02-27 20:16:00,
2017-02-27 14:21:00,52.3,33.2,29.97,South,180,4.9,8.1,48,0.00,BKN,,0.01,250.0,WeatherDisplay:10.37,2017-02-27 20:21:00,
2017-02-27 14:26:00,52.1,32.5,29.96,South,185,4.5,6.9,47,0.00,BKN,,0.01,250.0,WeatherDisplay:10.37,2017-02-27 20:26:00,
2017-02-27 14:31:00,52.0,32.9,29.96,South,184,7.3,11.5,48,0.00,OVC,,0.01,260.0,WeatherDisplay:10.37,2017-02-27 20:31:00,
2017-02-27 14:36:00,52.0,31.8,29.95,SSE,147,5.1,6.9,46,0.00,OVC,,0.01,357.0,WeatherDisplay:10.37,2017-02-27 20:36:00,
2017-02-27 14:41:00,52.3,31.6,29.95,SSE,149,3.8,6.9,45,0.00,OVC,,0.01,225.0,WeatherDisplay:10.37,2017-02-27 20:41:00,
2017-02-27 14:46:00,52.1,31.4,29.94,South,184,2.8,4.6,45,0.00,BKN,,0.01,246.0,WeatherDisplay:10.37,2017-02-27 20:46:00,
2017-02-27 14:51:00,52.1,31.4,29.94,SSE,149,3.6,8.1,45,0.00,BKN,,0.01,287.0,WeatherDisplay:10.37,2017-02-27 20:51:00,
2017-02-27 14:56:00,52.2,30.4,29.94,SE,132,5.4,8.1,43,0.00,BKN,,0.01,237.0,WeatherDisplay:10.37,2017-02-27 20:56:00,
2017-02-27 15:01:00,52.1,30.3,29.94,SSE,153,6.3,6.9,43,0.00,BKN,,0.01,250.0,WeatherDisplay:10.37,2017-02-27 21:01:00,
2017-02-27 15:06:00,52.1,30.8,29.93,SSE,150,5.7,8.1,44,0.00,BKN,,0.01,188.0,WeatherDisplay:10.37,2017-02-27 21:06:00,
2017-02-27 15:11:00,52.1,31.9,29.93,SSE,148,3.6,6.9,46,0.00,BKN,,0.01,214.0,WeatherDisplay:10.37,2017-02-27 21:11:00,
2017-02-27 15:16:00,52.0,31.3,29.93,SE,132,4.4,6.0,45,0.00,BKN,,0.01,195.0,WeatherDisplay:10.37,2017-02-27 21:16:00,
2017-02-27 15:21:00,52.0,30.7,29.93,SSE,155,4.9,8.1,44,0.00,BKN,,0.01,220.0,WeatherDisplay:10.37,2017-02-27 21:21:00,
2017-02-27 15:26:00,52.1,30.8,29.93,SSE,161,4.2,5.8,44,0.00,BKN,,0.01,200.0,WeatherDisplay:10.37,2017-02-27 21:26:00,
2017-02-27 15:31:00,52.1,31.4,29.93,SE,140,0.0,1.2,45,0.00,BKN,,0.01,202.0,WeatherDisplay:10.37,2017-02-27 21:31:00,
2017-02-27 15:36:00,52.1,31.9,29.92,SSE,155,0.0,1.2,46,0.00,BKN,,0.01,160.0,WeatherDisplay:10.37,2017-02-27 21:36:00,
2017-02-27 15:41:00,51.9,32.3,29.92,SE,142,4.5,6.9,47,0.00,BKN,,0.01,153.0,WeatherDisplay:10.37,2017-02-27 21:41:00,
2017-02-27 15:46:00,51.8,32.2,29.92,SSE,148,6.2,9.2,47,0.00,SCT,,0.01,195.0,WeatherDisplay:10.37,2017-02-27 21:46:00,
2017-02-27 15:51:00,51.9,32.8,29.92,SE,142,6.7,8.1,48,0.00,SCT,,0.01,165.0,WeatherDisplay:10.37,2017-02-27 21:51:00,
2017-02-27 15:56:00,52.0,31.3,29.91,SE,132,7.3,9.2,45,0.00,SCT,,0.01,162.0,WeatherDisplay:10.37,2017-02-27 21:56:00,
2017-02-27 16:01:00,52.0,31.8,29.91,SSE,156,5.6,8.1,46,0.00,BKN,,0.01,135.0,WeatherDisplay:10.37,2017-02-27 22:01:00,
2017-02-27 16:06:00,51.9,31.7,29.90,SSE,150,6.1,9.2,46,0.00,BKN,,0.01,100.0,WeatherDisplay:10.37,2017-02-27 22:06:00,
2017-02-27 16:11:00,51.8,31.7,29.90,SE,145,4.6,8.1,46,0.00,BKN,,0.01,90.0,WeatherDisplay:10.37,2017-02-27 22:11:00,
2017-02-27 16:16:00,51.7,31.6,29.90,SSE,159,4.4,6.0,46,0.00,BKN,,0.01,84.0,WeatherDisplay:10.37,2017-02-27 22:16:00,
2017-02-27 16:21:00,51.6,30.9,29.89,SE,142,5.8,6.9,45,0.00,BKN,,0.01,105.0,WeatherDisplay:10.37,2017-02-27 22:21:00,
2017-02-27 16:26:00,51.5,30.8,29.89,SSE,149,5.7,8.1,45,0.00,BKN,,0.01,128.0,WeatherDisplay:10.37,2017-02-27 22:26:00,
2017-02-27 16:31:00,51.5,31.4,29.89,SSE,148,5.4,6.9,46,0.00,BKN,,0.01,83.0,WeatherDisplay:10.37,2017-02-27 22:31:00,
2017-02-27 16:36:00,51.5,31.9,29.90,SE,137,4.5,6.9,47,0.00,BKN,,0.01,77.0,WeatherDisplay:10.37,2017-02-27 22:36:00,
2017-02-27 16:41:00,51.4,31.3,29.89,SE,142,4.7,6.0,46,0.00,BKN,,0.01,77.0,WeatherDisplay:10.37,2017-02-27 22:41:00,
2017-02-27 16:46:00,51.4,30.2,29.89,SSE,148,6.7,9.2,44,0.00,OVC,,0.01,65.0,WeatherDisplay:10.37,2017-02-27 22:46:00,
2017-02-27 16:51:00,51.4,30.2,29.89,SE,138,5.8,6.9,44,0.00,OVC,,0.01,58.0,WeatherDisplay:10.37,2017-02-27 22:51:00,
2017-02-27 16:56:00,51.4,30.7,29.89,SE,133,5.7,6.9,45,0.00,OVC,,0.01,60.0,WeatherDisplay:10.37,2017-02-27 22:56:00,
2017-02-27 17:01:00,51.3,31.2,29.89,SE,146,4.3,6.0,46,0.00,OVC,,0.01,46.0,WeatherDisplay:10.37,2017-02-27 23:01:00,
2017-02-27 17:06:00,51.2,30.6,29.88,SE,132,4.0,6.9,45,0.00,OVC,,0.01,44.0,WeatherDisplay:10.37,2017-02-27 23:06:00,
2017-02-27 17:11:00,51.2,31.1,29.88,SE,143,4.4,6.9,46,0.00,OVC,,0.01,40.0,WeatherDisplay:10.37,2017-02-27 23:11:00,
2017-02-27 17:16:00,51.2,31.6,29.88,SE,144,3.5,5.0,47,0.00,OVC,,0.01,33.0,WeatherDisplay:10.37,2017-02-27 23:16:00,
2017-02-27 17:21:00,51.2,31.6,29.88,SE,133,3.0,4.6,47,0.00,OVC,,0.01,25.0,WeatherDisplay:10.37,2017-02-27 23:21:00,
2017-02-27 17:26:00,51.0,31.5,29.89,SE,136,4.6,4.6,47,0.00,OVC,,0.01,25.0,WeatherDisplay:10.37,2017-02-27 23:26:00,
2017-02-27 17:31:00,51.0,30.9,29.89,SSE,148,5.0,5.8,46,0.00,OVC,,0.01,19.0,WeatherDisplay:10.37,2017-02-27 23:31:00,
2017-02-27 17:36:00,50.9,30.8,29.88,SE,145,4.0,6.0,46,0.00,OVC,,0.01,7.0,WeatherDisplay:10.37,2017-02-27 23:36:00,
2017-02-27 17:41:00,50.9,30.8,29.88,SE,144,3.3,4.6,46,0.00,OVC,,0.01,11.0,WeatherDisplay:10.37,2017-02-27 23:41:00,
2017-02-27 17:46:00,50.8,30.7,29.88,SE,143,4.6,5.8,46,0.00,OVC,,0.01,7.0,WeatherDisplay:10.37,2017-02-27 23:46:00,
2017-02-27 17:51:00,50.7,31.2,29.87,ESE,115,2.0,5.0,47,0.00,OVC,,0.01,0.0,WeatherDisplay:10.37,2017-02-27 23:51:00,
2017-02-27 17:56:00,50.5,31.0,29.87,SE,126,5.2,6.9,47,0.00,OVC,,0.01,0.0,WeatherDisplay:10.37,2017-02-27 23:56:00,
2017-02-27 18:01:00,50.6,31.6,29.87,South,170,6.8,11.5,48,0.00,OVC,,0.01,0.0,WeatherDisplay:10.37,2017-02-28 00:01:00,
2017-02-27 18:06:00,50.6,32.6,29.87,South,177,2.1,4.0,50,0.00,OVC,,0.01,0.0,WeatherDisplay:10.37,2017-02-28 00:06:00,
2017-02-27 18:11:00,50.4,33.4,29.87,South,177,0.0,0.0,52,0.00,OVC,,0.01,0.0,WeatherDisplay:10.37,2017-02-28 00:11:00,
2017-02-27 18:16:00,50.1,33.6,29.87,South,172,0.0,0.0,53,0.00,OVC,,0.01,0.0,WeatherDisplay:10.37,2017-02-28 00:16:00,
2017-02-27 18:21:00,50.0,32.1,29.86,SE,136,5.5,7.0,50,0.00,OVC,,0.01,0.0,WeatherDisplay:10.37,2017-02-28 00:21:00,
2017-02-27 18:26:00,50.0,32.1,29.86,SE,126,5.1,6.9,50,0.00,OVC,,0.01,0.0,WeatherDisplay:10.37,2017-02-28 00:26:00,
2017-02-27 18:31:00,50.0,31.6,29.86,SE,144,5.6,6.9,49,0.00,OVC,,0.01,0.0,WeatherDisplay:10.37,2017-02-28 00:31:00,
2017-02-27 18:36:00,50.1,31.2,29.88,SE,140,3.8,5.8,48,0.00,OVC,,0.01,0.0,WeatherDisplay:10.37,2017-02-28 00:36:00,
2017-02-27 18:41:00,50.1,31.7,29.88,SE,140,2.0,2.3,49,0.00,OVC,,0.01,0.0,WeatherDisplay:10.37,2017-02-28 00:41:00,
2017-02-27 18:46:00,49.9,31.5,29.89,SSE,164,3.6,5.8,49,0.00,OVC,,0.01,0.0,WeatherDisplay:10.37,2017-02-28 00:46:00,
2017-02-27 18:51:00,49.6,32.2,29.89,SSE,154,0.0,2.3,51,0.00,OVC,,0.01,0.0,WeatherDisplay:10.37,2017-02-28 00:51:00,
2017-02-27 18:56:00,49.5,31.6,29.89,ESE,119,3.2,6.9,50,0.00,OVC,,0.01,0.0,WeatherDisplay:10.37,2017-02-28 00:56:00,
2017-02-27 19:01:00,49.4,32.0,29.89,ESE,105,5.8,9.2,51,0.01,RA,,0.02,0.0,WeatherDisplay:10.37,2017-02-28 01:01:00,
2017-02-27 19:06:00,49.2,32.3,29.89,ESE,109,2.1,4.6,52,0.01,RA,,0.02,0.0,WeatherDisplay:10.37,2017-02-28 01:06:00,
2017-02-27 19:11:00,48.8,32.9,29.89,ESE,119,3.6,4.6,54,0.01,OVC,,0.02,0.0,WeatherDisplay:10.37,2017-02-28 01:11:00,
2017-02-27 19:16:00,48.5,33.5,29.89,ESE,120,0.0,0.0,56,0.01,OVC,,0.02,0.0,WeatherDisplay:10.37,2017-02-28 01:16:00,
2017-02-27 19:21:00,48.1,34.0,29.88,ESE,115,2.4,2.4,58,0.01,OVC,,0.02,0.0,WeatherDisplay:10.37,2017-02-28 01:21:00,
2017-02-27 19:26:00,47.8,34.6,29.88,ESE,106,3.1,4.6,60,0.01,OVC,,0.02,0.0,WeatherDisplay:10.37,2017-02-28 01:26:00,
2017-02-27 19:31:00,47.3,34.1,29.88,ESE,107,0.0,0.0,60,0.01,OVC,,0.02,0.0,WeatherDisplay:10.37,2017-02-28 01:31:00,